sensor_id;sensor_type;location;lat;lon;timestamp;pressure;altitude;pressure_sealevel;temperature;humidity
11750;BME280;5932;42.656;23.236;2022-07-22T00:00:05;93750.91;;;22.54;51.73
11750;BME280;5932;42.656;23.236;2022-07-22T00:02:32;93755.31;;;22.46;52.23
11750;BME280;5932;42.656;23.236;2022-07-22T00:04:59;93748.03;;;22.43;53.04
11750;BME280;5932;42.656;23.236;2022-07-22T00:07:26;93748.47;;;22.41;52.58
11750;BME280;5932;42.656;23.236;2022-07-22T00:09:52;93750.03;;;22.42;51.99
11750;BME280;5932;42.656;23.236;2022-07-22T00:12:21;93755.22;;;22.35;52.42
11750;BME280;5932;42.656;23.236;2022-07-22T00:14:47;93747.00;;;22.20;53.12
11750;BME280;5932;42.656;23.236;2022-07-22T00:17:14;93753.78;;;22.19;52.63
11750;BME280;5932;42.656;23.236;2022-07-22T00:19:41;93756.25;;;22.17;53.31
11750;BME280;5932;42.656;23.236;2022-07-22T00:22:08;93747.63;;;22.09;53.20
11750;BME280;5932;42.656;23.236;2022-07-22T00:24:35;93748.66;;;22.12;52.41
11750;BME280;5932;42.656;23.236;2022-07-22T00:27:02;93753.91;;;22.10;53.21
11750;BME280;5932;42.656;23.236;2022-07-22T00:29:30;93745.50;;;21.99;53.30
11750;BME280;5932;42.656;23.236;2022-07-22T00:31:57;93753.56;;;22.02;53.96
11750;BME280;5932;42.656;23.236;2022-07-22T00:34:23;93751.28;;;22.01;54.38
11750;BME280;5932;42.656;23.236;2022-07-22T00:36:50;93754.03;;;22.01;53.61
11750;BME280;5932;42.656;23.236;2022-07-22T00:39:17;93755.97;;;21.95;53.74
11750;BME280;5932;42.656;23.236;2022-07-22T00:41:44;93767.78;;;21.95;54.20
11750;BME280;5932;42.656;23.236;2022-07-22T00:44:11;93749.97;;;21.96;54.78
11750;BME280;5932;42.656;23.236;2022-07-22T00:46:39;93747.97;;;21.97;54.39
11750;BME280;5932;42.656;23.236;2022-07-22T00:49:07;93742.94;;;21.95;54.05
11750;BME280;5932;42.656;23.236;2022-07-22T00:51:35;93756.72;;;21.95;54.66
11750;BME280;5932;42.656;23.236;2022-07-22T00:54:03;93756.72;;;21.95;54.09
11750;BME280;5932;42.656;23.236;2022-07-22T00:56:30;93731.31;;;21.71;56.05
11750;BME280;5932;42.656;23.236;2022-07-22T00:59:01;93757.69;;;21.92;55.28
11750;BME280;5932;42.656;23.236;2022-07-22T01:01:28;93755.19;;;21.94;55.60
11750;BME280;5932;42.656;23.236;2022-07-22T01:03:57;93756.47;;;21.93;54.88
11750;BME280;5932;42.656;23.236;2022-07-22T01:06:23;93744.72;;;21.98;57.39
11750;BME280;5932;42.656;23.236;2022-07-22T01:08:50;93747.19;;;21.96;58.11
11750;BME280;5932;42.656;23.236;2022-07-22T01:11:18;93739.69;;;21.97;56.18
11750;BME280;5932;42.656;23.236;2022-07-22T01:13:46;93745.97;;;21.97;57.95
11750;BME280;5932;42.656;23.236;2022-07-22T01:16:15;93753.41;;;21.91;58.02
11750;BME280;5932;42.656;23.236;2022-07-22T01:18:44;93759.09;;;21.82;54.70
11750;BME280;5932;42.656;23.236;2022-07-22T01:21:14;93747.91;;;21.77;54.46
11750;BME280;5932;42.656;23.236;2022-07-22T01:23:41;93750.06;;;21.67;54.39
11750;BME280;5932;42.656;23.236;2022-07-22T01:26:08;93749.78;;;21.65;54.91
11750;BME280;5932;42.656;23.236;2022-07-22T01:28:35;93745.38;;;21.53;56.00
11750;BME280;5932;42.656;23.236;2022-07-22T01:31:02;93743.84;;;21.52;55.61
11750;BME280;5932;42.656;23.236;2022-07-22T01:33:30;93740.13;;;21.55;55.32
11750;BME280;5932;42.656;23.236;2022-07-22T01:35:57;93743.75;;;21.47;55.99
11750;BME280;5932;42.656;23.236;2022-07-22T01:38:25;93741.66;;;21.42;55.79
11750;BME280;5932;42.656;23.236;2022-07-22T01:40:52;93743.13;;;21.37;56.46
11750;BME280;5932;42.656;23.236;2022-07-22T01:43:19;93737.88;;;21.39;55.84
11750;BME280;5932;42.656;23.236;2022-07-22T01:45:48;93740.66;;;21.39;56.40
11750;BME280;5932;42.656;23.236;2022-07-22T01:48:15;93737.41;;;21.41;58.20
11750;BME280;5932;42.656;23.236;2022-07-22T01:50:43;93746.44;;;21.41;58.87
11750;BME280;5932;42.656;23.236;2022-07-22T01:53:10;93743.69;;;21.41;58.95
11750;BME280;5932;42.656;23.236;2022-07-22T01:55:39;93743.69;;;21.41;57.87
11750;BME280;5932;42.656;23.236;2022-07-22T01:58:06;93742.44;;;21.42;57.19
11750;BME280;5932;42.656;23.236;2022-07-22T02:00:33;93748.50;;;21.46;55.89
11750;BME280;5932;42.656;23.236;2022-07-22T02:03:00;93752.97;;;21.44;55.48
11750;BME280;5932;42.656;23.236;2022-07-22T02:05:27;93753.25;;;21.46;58.91
11750;BME280;5932;42.656;23.236;2022-07-22T02:07:59;93746.72;;;21.43;56.64
11750;BME280;5932;42.656;23.236;2022-07-22T02:10:26;93754.50;;;21.45;57.17
11750;BME280;5932;42.656;23.236;2022-07-22T02:12:54;93755.44;;;21.42;58.53
11750;BME280;5932;42.656;23.236;2022-07-22T02:15:21;93760.00;;;21.45;57.76
11750;BME280;5932;42.656;23.236;2022-07-22T02:17:48;93745.31;;;21.33;57.07
11750;BME280;5932;42.656;23.236;2022-07-22T02:20:15;93756.69;;;21.41;56.04
11750;BME280;5932;42.656;23.236;2022-07-22T02:22:41;93759.38;;;21.35;55.67
11750;BME280;5932;42.656;23.236;2022-07-22T02:25:08;93761.34;;;21.35;54.86
11750;BME280;5932;42.656;23.236;2022-07-22T02:27:35;93769.06;;;21.31;55.30
11750;BME280;5932;42.656;23.236;2022-07-22T02:30:05;93771.75;;;21.25;57.49
11750;BME280;5932;42.656;23.236;2022-07-22T02:32:33;93764.44;;;21.22;56.39
11750;BME280;5932;42.656;23.236;2022-07-22T02:34:59;93768.34;;;21.15;57.87
11750;BME280;5932;42.656;23.236;2022-07-22T02:37:26;93759.63;;;21.02;57.94
11750;BME280;5932;42.656;23.236;2022-07-22T02:39:53;93767.41;;;21.04;58.41
11750;BME280;5932;42.656;23.236;2022-07-22T02:42:20;93762.81;;;21.01;57.30
11750;BME280;5932;42.656;23.236;2022-07-22T02:44:46;93763.47;;;20.96;57.60
11750;BME280;5932;42.656;23.236;2022-07-22T02:47:15;93760.81;;;20.87;59.44
11750;BME280;5932;42.656;23.236;2022-07-22T02:49:41;93759.97;;;20.81;59.23
11750;BME280;5932;42.656;23.236;2022-07-22T02:52:08;93762.16;;;20.77;59.17
11750;BME280;5932;42.656;23.236;2022-07-22T02:54:35;93764.72;;;20.80;60.76
11750;BME280;5932;42.656;23.236;2022-07-22T02:57:02;93765.47;;;20.81;61.01
11750;BME280;5932;42.656;23.236;2022-07-22T02:59:28;93765.47;;;20.81;61.61
11750;BME280;5932;42.656;23.236;2022-07-22T03:01:55;93760.63;;;20.76;59.25
11750;BME280;5932;42.656;23.236;2022-07-22T03:04:23;93763.66;;;20.78;59.45
11750;BME280;5932;42.656;23.236;2022-07-22T03:06:50;93758.72;;;20.82;58.07
11750;BME280;5932;42.656;23.236;2022-07-22T03:09:17;93754.09;;;20.73;59.47
11750;BME280;5932;42.656;23.236;2022-07-22T03:11:44;93759.09;;;20.75;58.82
11750;BME280;5932;42.656;23.236;2022-07-22T03:14:11;93765.09;;;20.73;59.49
11750;BME280;5932;42.656;23.236;2022-07-22T03:16:38;93758.06;;;20.72;58.06
11750;BME280;5932;42.656;23.236;2022-07-22T03:19:04;93761.34;;;20.62;57.90
11750;BME280;5932;42.656;23.236;2022-07-22T03:21:33;93757.09;;;20.61;58.46
11750;BME280;5932;42.656;23.236;2022-07-22T03:23:59;93759.84;;;20.61;57.57
11750;BME280;5932;42.656;23.236;2022-07-22T03:26:26;93764.31;;;20.58;57.69
11750;BME280;5932;42.656;23.236;2022-07-22T03:28:53;93766.03;;;20.56;58.38
11750;BME280;5932;42.656;23.236;2022-07-22T03:31:20;93751.78;;;20.57;57.85
11750;BME280;5932;42.656;23.236;2022-07-22T03:33:46;93757.88;;;20.61;57.98
11750;BME280;5932;42.656;23.236;2022-07-22T03:36:13;93766.22;;;20.67;57.57
11750;BME280;5932;42.656;23.236;2022-07-22T03:38:41;93770.78;;;20.70;57.64
11750;BME280;5932;42.656;23.236;2022-07-22T03:41:08;93770.78;;;20.70;57.92
11750;BME280;5932;42.656;23.236;2022-07-22T03:43:35;93766.03;;;20.70;56.98
11750;BME280;5932;42.656;23.236;2022-07-22T03:46:02;93766.41;;;20.78;57.03
11750;BME280;5932;42.656;23.236;2022-07-22T03:48:29;93772.88;;;20.89;56.60
11750;BME280;5932;42.656;23.236;2022-07-22T03:50:55;93770.41;;;20.91;56.52
11750;BME280;5932;42.656;23.236;2022-07-22T03:53:22;93768.69;;;20.94;56.70
11750;BME280;5932;42.656;23.236;2022-07-22T03:55:50;93780.75;;;20.96;57.34
11750;BME280;5932;42.656;23.236;2022-07-22T03:58:17;93785.03;;;20.97;57.58
11750;BME280;5932;42.656;23.236;2022-07-22T04:00:44;93776.88;;;21.03;56.81
11750;BME280;5932;42.656;23.236;2022-07-22T04:03:11;93792.19;;;21.04;57.43
11750;BME280;5932;42.656;23.236;2022-07-22T04:05:37;93784.53;;;20.99;58.07
11750;BME280;5932;42.656;23.236;2022-07-22T04:08:04;93780.13;;;21.01;57.31
11750;BME280;5932;42.656;23.236;2022-07-22T04:10:31;93775.81;;;21.00;57.66
11750;BME280;5932;42.656;23.236;2022-07-22T04:13:00;93786.75;;;21.09;57.16
11750;BME280;5932;42.656;23.236;2022-07-22T04:15:26;93784.78;;;21.10;56.66
11750;BME280;5932;42.656;23.236;2022-07-22T04:17:53;93783.31;;;21.14;57.73
11750;BME280;5932;42.656;23.236;2022-07-22T04:20:20;93778.50;;;21.24;57.62
11750;BME280;5932;42.656;23.236;2022-07-22T04:22:47;93786.94;;;21.20;58.02
11750;BME280;5932;42.656;23.236;2022-07-22T04:25:14;93784.53;;;21.28;58.07
11750;BME280;5932;42.656;23.236;2022-07-22T04:27:41;93785.59;;;21.31;58.35
11750;BME280;5932;42.656;23.236;2022-07-22T04:30:10;93785.50;;;21.40;57.69
11750;BME280;5932;42.656;23.236;2022-07-22T04:32:37;93793.94;;;21.36;57.67
11750;BME280;5932;42.656;23.236;2022-07-22T04:35:05;93792.41;;;21.50;57.76
11750;BME280;5932;42.656;23.236;2022-07-22T04:37:32;93794.56;;;21.60;57.09
11750;BME280;5932;42.656;23.236;2022-07-22T04:39:58;93798.56;;;21.59;57.17
11750;BME280;5932;42.656;23.236;2022-07-22T04:42:25;93800.66;;;21.64;57.29
11750;BME280;5932;42.656;23.236;2022-07-22T04:44:52;93806.44;;;21.66;57.79
11750;BME280;5932;42.656;23.236;2022-07-22T04:47:20;93810.53;;;21.71;57.70
11750;BME280;5932;42.656;23.236;2022-07-22T04:49:47;93809.56;;;21.88;56.41
11750;BME280;5932;42.656;23.236;2022-07-22T04:52:14;93811.47;;;22.02;56.98
11750;BME280;5932;42.656;23.236;2022-07-22T04:54:40;93814.88;;;22.12;57.32
11750;BME280;5932;42.656;23.236;2022-07-22T04:57:07;93810.06;;;22.27;57.45
11750;BME280;5932;42.656;23.236;2022-07-22T04:59:34;93814.59;;;22.30;56.98
11750;BME280;5932;42.656;23.236;2022-07-22T05:02:01;93806.81;;;22.29;57.71
11750;BME280;5932;42.656;23.236;2022-07-22T05:04:29;93816.31;;;22.48;58.75
11750;BME280;5932;42.656;23.236;2022-07-22T05:06:56;93820.34;;;22.67;55.26
11750;BME280;5932;42.656;23.236;2022-07-22T05:09:23;93815.13;;;22.74;55.82
11750;BME280;5932;42.656;23.236;2022-07-22T05:11:50;93816.50;;;22.84;56.53
11750;BME280;5932;42.656;23.236;2022-07-22T05:14:16;93819.72;;;23.03;54.31
11750;BME280;5932;42.656;23.236;2022-07-22T05:16:43;93817.91;;;23.00;55.80
11750;BME280;5932;42.656;23.236;2022-07-22T05:19:10;93812.25;;;23.09;54.85
11750;BME280;5932;42.656;23.236;2022-07-22T05:21:38;93822.09;;;23.16;58.38
11750;BME280;5932;42.656;23.236;2022-07-22T05:24:05;93829.69;;;23.21;57.59
11750;BME280;5932;42.656;23.236;2022-07-22T05:26:32;93823.41;;;23.20;58.70
11750;BME280;5932;42.656;23.236;2022-07-22T05:28:59;93830.84;;;23.34;58.58
11750;BME280;5932;42.656;23.236;2022-07-22T05:31:26;93829.44;;;23.44;57.33
11750;BME280;5932;42.656;23.236;2022-07-22T05:33:53;93835.13;;;23.66;54.58
11750;BME280;5932;42.656;23.236;2022-07-22T05:36:19;93823.81;;;23.70;55.60
11750;BME280;5932;42.656;23.236;2022-07-22T05:38:47;93841.28;;;23.81;56.08
11750;BME280;5932;42.656;23.236;2022-07-22T05:41:15;93837.16;;;24.03;53.69
11750;BME280;5932;42.656;23.236;2022-07-22T05:43:42;93832.19;;;24.12;51.08
11750;BME280;5932;42.656;23.236;2022-07-22T05:46:08;93838.56;;;24.29;52.06
11750;BME280;5932;42.656;23.236;2022-07-22T05:48:36;93840.13;;;24.36;56.19
11750;BME280;5932;42.656;23.236;2022-07-22T05:51:02;93844.91;;;24.41;57.59
11750;BME280;5932;42.656;23.236;2022-07-22T05:53:29;93830.03;;;24.38;58.95
11750;BME280;5932;42.656;23.236;2022-07-22T05:55:57;93840.94;;;24.53;56.83
11750;BME280;5932;42.656;23.236;2022-07-22T05:58:24;93832.91;;;24.60;57.30
11750;BME280;5932;42.656;23.236;2022-07-22T06:00:51;93834.22;;;24.65;56.54
11750;BME280;5932;42.656;23.236;2022-07-22T06:03:18;93834.53;;;24.78;55.10
11750;BME280;5932;42.656;23.236;2022-07-22T06:05:44;93835.03;;;24.82;55.05
11750;BME280;5932;42.656;23.236;2022-07-22T06:08:11;93837.38;;;25.00;54.78
11750;BME280;5932;42.656;23.236;2022-07-22T06:10:38;93841.91;;;25.14;53.52
11750;BME280;5932;42.656;23.236;2022-07-22T06:13:06;93841.44;;;25.27;49.80
11750;BME280;5932;42.656;23.236;2022-07-22T06:15:33;93835.91;;;25.38;46.67
11750;BME280;5932;42.656;23.236;2022-07-22T06:18:00;93842.97;;;25.39;45.96
11750;BME280;5932;42.656;23.236;2022-07-22T06:20:27;93830.38;;;25.43;47.38
11750;BME280;5932;42.656;23.236;2022-07-22T06:22:53;93835.69;;;25.52;47.10
11750;BME280;5932;42.656;23.236;2022-07-22T06:25:20;93837.22;;;25.76;44.52
11750;BME280;5932;42.656;23.236;2022-07-22T06:27:47;93837.47;;;25.83;41.92
11750;BME280;5932;42.656;23.236;2022-07-22T06:30:15;93841.00;;;25.89;43.01
11750;BME280;5932;42.656;23.236;2022-07-22T06:32:42;93841.50;;;25.93;38.76
11750;BME280;5932;42.656;23.236;2022-07-22T06:35:09;93851.81;;;25.98;40.87
11750;BME280;5932;42.656;23.236;2022-07-22T06:37:36;93846.28;;;26.04;43.01
11750;BME280;5932;42.656;23.236;2022-07-22T06:40:03;93839.72;;;26.12;43.33
11750;BME280;5932;42.656;23.236;2022-07-22T06:42:30;93849.53;;;26.24;43.15
11750;BME280;5932;42.656;23.236;2022-07-22T06:44:57;93851.03;;;26.42;40.76
11750;BME280;5932;42.656;23.236;2022-07-22T06:47:25;93859.38;;;26.31;38.90
11750;BME280;5932;42.656;23.236;2022-07-22T06:49:52;93850.03;;;26.28;39.81
11750;BME280;5932;42.656;23.236;2022-07-22T06:52:19;93857.59;;;26.33;40.49
11750;BME280;5932;42.656;23.236;2022-07-22T06:54:46;93852.50;;;26.43;40.21
11750;BME280;5932;42.656;23.236;2022-07-22T06:57:12;93846.97;;;26.49;41.64
11750;BME280;5932;42.656;23.236;2022-07-22T06:59:39;93849.72;;;26.54;40.18
11750;BME280;5932;42.656;23.236;2022-07-22T07:02:06;93852.47;;;26.60;41.62
11750;BME280;5932;42.656;23.236;2022-07-22T07:04:34;93843.13;;;26.74;40.72
11750;BME280;5932;42.656;23.236;2022-07-22T07:07:01;93844.06;;;26.87;39.90
11750;BME280;5932;42.656;23.236;2022-07-22T07:09:27;93844.78;;;26.93;40.00
11750;BME280;5932;42.656;23.236;2022-07-22T07:11:54;93861.97;;;26.92;39.36
11750;BME280;5932;42.656;23.236;2022-07-22T07:14:21;93857.94;;;26.93;39.88
11750;BME280;5932;42.656;23.236;2022-07-22T07:16:48;93856.69;;;26.88;39.99
11750;BME280;5932;42.656;23.236;2022-07-22T07:19:14;93855.69;;;26.86;40.27
11750;BME280;5932;42.656;23.236;2022-07-22T07:21:43;93858.00;;;26.82;41.11
11750;BME280;5932;42.656;23.236;2022-07-22T07:24:09;93857.97;;;26.87;41.38
11750;BME280;5932;42.656;23.236;2022-07-22T07:26:37;93863.53;;;26.87;42.31
11750;BME280;5932;42.656;23.236;2022-07-22T07:29:04;93860.22;;;26.89;40.82
11750;BME280;5932;42.656;23.236;2022-07-22T07:31:31;93871.03;;;26.98;40.88
11750;BME280;5932;42.656;23.236;2022-07-22T07:33:58;93866.00;;;26.96;39.74
11750;BME280;5932;42.656;23.236;2022-07-22T07:36:25;93862.69;;;27.03;40.07
11750;BME280;5932;42.656;23.236;2022-07-22T07:38:53;93861.13;;;27.08;40.24
11750;BME280;5932;42.656;23.236;2022-07-22T07:41:20;93865.47;;;27.03;39.15
11750;BME280;5932;42.656;23.236;2022-07-22T07:43:46;93855.06;;;27.09;39.02
11750;BME280;5932;42.656;23.236;2022-07-22T07:46:13;93866.38;;;27.22;39.32
11750;BME280;5932;42.656;23.236;2022-07-22T07:48:40;93864.81;;;27.38;40.40
11750;BME280;5932;42.656;23.236;2022-07-22T07:51:07;93870.28;;;27.49;37.55
11750;BME280;5932;42.656;23.236;2022-07-22T07:53:34;93872.75;;;27.58;37.37
11750;BME280;5932;42.656;23.236;2022-07-22T07:56:02;93868.19;;;27.61;36.98
11750;BME280;5932;42.656;23.236;2022-07-22T07:58:29;93873.66;;;27.72;36.43
11750;BME280;5932;42.656;23.236;2022-07-22T08:00:56;93872.59;;;27.80;34.76
11750;BME280;5932;42.656;23.236;2022-07-22T08:03:23;93874.53;;;27.91;35.43
11750;BME280;5932;42.656;23.236;2022-07-22T08:05:49;93863.56;;;28.04;35.11
11750;BME280;5932;42.656;23.236;2022-07-22T08:08:16;93857.69;;;28.07;33.50
11750;BME280;5932;42.656;23.236;2022-07-22T08:10:43;93870.44;;;28.27;33.45
11750;BME280;5932;42.656;23.236;2022-07-22T08:13:12;93870.09;;;28.36;32.61
11750;BME280;5932;42.656;23.236;2022-07-22T08:15:38;93863.25;;;28.37;33.50
11750;BME280;5932;42.656;23.236;2022-07-22T08:18:05;93871.69;;;28.56;34.04
11750;BME280;5932;42.656;23.236;2022-07-22T08:20:35;93875.78;;;28.73;33.79
11750;BME280;5932;42.656;23.236;2022-07-22T08:23:02;93875.56;;;28.71;33.71
11750;BME280;5932;42.656;23.236;2022-07-22T08:25:29;93882.66;;;28.72;33.38
11750;BME280;5932;42.656;23.236;2022-07-22T08:27:56;93878.59;;;28.73;33.72
11750;BME280;5932;42.656;23.236;2022-07-22T08:30:25;93878.09;;;28.93;33.64
11750;BME280;5932;42.656;23.236;2022-07-22T08:32:54;93880.66;;;28.91;33.76
11750;BME280;5932;42.656;23.236;2022-07-22T08:35:21;93873.94;;;28.81;34.42
11750;BME280;5932;42.656;23.236;2022-07-22T08:37:48;93879.91;;;28.91;36.00
11750;BME280;5932;42.656;23.236;2022-07-22T09:25:19;93896.94;;;31.28;31.50
11750;BME280;5932;42.656;23.236;2022-07-22T09:27:46;93884.78;;;31.38;32.33
11750;BME280;5932;42.656;23.236;2022-07-22T09:30:14;93886.25;;;31.52;32.08
11750;BME280;5932;42.656;23.236;2022-07-22T09:32:43;93888.31;;;31.52;30.02
11750;BME280;5932;42.656;23.236;2022-07-22T09:35:11;93891.63;;;31.64;31.34
11750;BME280;5932;42.656;23.236;2022-07-22T09:37:47;93892.13;;;31.75;30.12
11750;BME280;5932;42.656;23.236;2022-07-22T09:40:15;93891.91;;;31.73;30.08
11750;BME280;5932;42.656;23.236;2022-07-22T09:42:48;93891.44;;;31.82;29.87
11750;BME280;5932;42.656;23.236;2022-07-22T09:45:17;93889.06;;;31.86;28.70
11750;BME280;5932;42.656;23.236;2022-07-22T09:47:45;93893.75;;;31.71;28.76
11750;BME280;5932;42.656;23.236;2022-07-22T09:50:16;93889.53;;;31.77;29.05
11750;BME280;5932;42.656;23.236;2022-07-22T09:52:43;93881.97;;;31.85;28.85
11750;BME280;5932;42.656;23.236;2022-07-22T09:55:10;93880.28;;;32.03;28.99
11750;BME280;5932;42.656;23.236;2022-07-22T09:57:39;93879.31;;;32.21;27.54
11750;BME280;5932;42.656;23.236;2022-07-22T10:00:08;93872.63;;;32.24;28.43
11750;BME280;5932;42.656;23.236;2022-07-22T10:02:40;93883.28;;;32.46;28.57
11750;BME280;5932;42.656;23.236;2022-07-22T10:05:08;93868.09;;;32.41;27.54
11750;BME280;5932;42.656;23.236;2022-07-22T10:07:37;93871.66;;;32.21;28.60
11750;BME280;5932;42.656;23.236;2022-07-22T10:10:07;93866.88;;;32.29;28.99
11750;BME280;5932;42.656;23.236;2022-07-22T10:12:36;93867.84;;;32.32;28.57
11750;BME280;5932;42.656;23.236;2022-07-22T10:15:04;93861.75;;;32.20;28.30
11750;BME280;5932;42.656;23.236;2022-07-22T10:17:33;93871.75;;;32.08;28.99
11750;BME280;5932;42.656;23.236;2022-07-22T10:20:00;93861.75;;;32.00;28.93
11750;BME280;5932;42.656;23.236;2022-07-22T10:22:50;93868.88;;;32.21;nan
11750;BME280;5932;42.656;23.236;2022-07-22T10:25:19;93866.31;;;32.31;28.48
11750;BME280;5932;42.656;23.236;2022-07-22T10:27:48;93860.16;;;32.32;27.16
11750;BME280;5932;42.656;23.236;2022-07-22T10:30:19;93864.63;;;32.28;28.43
11750;BME280;5932;42.656;23.236;2022-07-22T10:33:01;93870.25;;;32.49;28.67
11750;BME280;5932;42.656;23.236;2022-07-22T10:35:29;93864.63;;;32.49;27.41
11750;BME280;5932;42.656;23.236;2022-07-22T10:37:59;93861.66;;;32.54;27.46
11750;BME280;5932;42.656;23.236;2022-07-22T10:40:28;93859.25;;;32.79;27.32
11750;BME280;5932;42.656;23.236;2022-07-22T10:43:05;93858.53;;;32.86;27.35
11750;BME280;5932;42.656;23.236;2022-07-22T10:45:35;93853.25;;;33.10;27.29
11750;BME280;5932;42.656;23.236;2022-07-22T10:48:05;93850.03;;;33.06;26.99
11750;BME280;5932;42.656;23.236;2022-07-22T10:50:42;93857.59;;;32.91;26.45
11750;BME280;5932;42.656;23.236;2022-07-22T10:53:10;93847.59;;;32.75;27.01
11750;BME280;5932;42.656;23.236;2022-07-22T10:55:38;93851.88;;;32.68;26.41
11750;BME280;5932;42.656;23.236;2022-07-22T10:58:41;93853.16;;;32.67;26.47
11750;BME280;5932;42.656;23.236;2022-07-22T11:01:10;93846.34;;;32.55;27.25
11750;BME280;5932;42.656;23.236;2022-07-22T11:03:42;93853.22;;;32.75;27.20
11750;BME280;5932;42.656;23.236;2022-07-22T11:06:14;93845.16;;;32.99;26.73
11750;BME280;5932;42.656;23.236;2022-07-22T11:08:42;93855.91;;;32.88;26.35
11750;BME280;5932;42.656;23.236;2022-07-22T11:11:09;93848.13;;;32.73;26.11
11750;BME280;5932;42.656;23.236;2022-07-22T11:13:38;93850.50;;;32.62;26.98
11750;BME280;5932;42.656;23.236;2022-07-22T11:16:16;93851.22;;;32.83;27.32
11750;BME280;5932;42.656;23.236;2022-07-22T11:18:52;93851.16;;;33.03;28.63
11750;BME280;5932;42.656;23.236;2022-07-22T11:21:22;93852.00;;;33.26;26.66
11750;BME280;5932;42.656;23.236;2022-07-22T11:23:51;93846.06;;;33.38;25.13
11750;BME280;5932;42.656;23.236;2022-07-22T11:26:25;93840.19;;;33.56;26.72
11750;BME280;5932;42.656;23.236;2022-07-22T11:28:52;93841.34;;;33.68;25.98
11750;BME280;5932;42.656;23.236;2022-07-22T11:31:19;93846.78;;;33.81;25.63
11750;BME280;5932;42.656;23.236;2022-07-22T11:33:46;93840.03;;;33.84;25.34
11750;BME280;5932;42.656;23.236;2022-07-22T11:36:14;93832.38;;;33.92;25.35
11750;BME280;5932;42.656;23.236;2022-07-22T11:38:44;93839.75;;;34.10;24.85
11750;BME280;5932;42.656;23.236;2022-07-22T11:41:11;93832.63;;;34.32;24.96
11750;BME280;5932;42.656;23.236;2022-07-22T11:43:43;93836.78;;;34.54;24.27
11750;BME280;5932;42.656;23.236;2022-07-22T11:46:10;93833.75;;;34.59;25.29
11750;BME280;5932;42.656;23.236;2022-07-22T11:48:38;93836.75;;;34.69;24.12
11750;BME280;5932;42.656;23.236;2022-07-22T11:51:05;93839.94;;;34.73;24.41
11750;BME280;5932;42.656;23.236;2022-07-22T11:53:34;93833.91;;;34.84;23.94
11750;BME280;5932;42.656;23.236;2022-07-22T11:56:02;93834.44;;;34.90;23.05
11750;BME280;5932;42.656;23.236;2022-07-22T11:58:37;93836.53;;;34.82;22.70
11750;BME280;5932;42.656;23.236;2022-07-22T12:01:05;93828.84;;;34.75;23.08
11750;BME280;5932;42.656;23.236;2022-07-22T12:03:33;93832.00;;;34.94;24.52
11750;BME280;5932;42.656;23.236;2022-07-22T12:06:02;93829.91;;;35.10;23.89
11750;BME280;5932;42.656;23.236;2022-07-22T12:08:30;93842.78;;;35.35;24.80
11750;BME280;5932;42.656;23.236;2022-07-22T12:10:59;93826.19;;;35.54;24.28
11750;BME280;5932;42.656;23.236;2022-07-22T12:13:29;93817.41;;;35.83;24.11
11750;BME280;5932;42.656;23.236;2022-07-22T12:15:57;93822.91;;;36.05;22.66
11750;BME280;5932;42.656;23.236;2022-07-22T12:18:25;93815.28;;;35.91;21.93
11750;BME280;5932;42.656;23.236;2022-07-22T12:20:53;93816.59;;;35.90;22.40
11750;BME280;5932;42.656;23.236;2022-07-22T12:23:22;93817.19;;;36.13;22.05
11750;BME280;5932;42.656;23.236;2022-07-22T12:25:51;93817.19;;;36.13;21.82
11750;BME280;5932;42.656;23.236;2022-07-22T12:28:19;93818.66;;;36.21;22.28
11750;BME280;5932;42.656;23.236;2022-07-22T12:30:46;93813.00;;;35.97;22.62
11750;BME280;5932;42.656;23.236;2022-07-22T12:33:14;93805.06;;;35.23;22.92
11750;BME280;5932;42.656;23.236;2022-07-22T12:35:41;93812.44;;;35.19;23.33
11750;BME280;5932;42.656;23.236;2022-07-22T12:38:08;93812.97;;;35.17;23.53
11750;BME280;5932;42.656;23.236;2022-07-22T12:40:36;93811.25;;;35.29;23.60
11750;BME280;5932;42.656;23.236;2022-07-22T12:43:04;93813.53;;;35.23;23.30
11750;BME280;5932;42.656;23.236;2022-07-22T12:45:34;93808.03;;;35.40;23.52
11750;BME280;5932;42.656;23.236;2022-07-22T12:48:08;93799.03;;;35.34;23.21
11750;BME280;5932;42.656;23.236;2022-07-22T12:50:37;93786.53;;;35.13;22.86
11750;BME280;5932;42.656;23.236;2022-07-22T12:53:11;93787.50;;;35.00;23.12
11750;BME280;5932;42.656;23.236;2022-07-22T12:55:40;93797.19;;;35.22;23.89
11750;BME280;5932;42.656;23.236;2022-07-22T12:58:08;93794.00;;;35.65;23.58
11750;BME280;5932;42.656;23.236;2022-07-22T13:00:37;93798.75;;;35.87;22.98
11750;BME280;5932;42.656;23.236;2022-07-22T13:03:05;93798.91;;;35.97;23.29
11750;BME280;5932;42.656;23.236;2022-07-22T13:05:32;93790.91;;;36.10;23.29
11750;BME280;5932;42.656;23.236;2022-07-22T13:07:59;93787.63;;;36.21;22.79
11750;BME280;5932;42.656;23.236;2022-07-22T13:10:26;93791.06;;;36.37;23.36
11750;BME280;5932;42.656;23.236;2022-07-22T13:12:53;93797.34;;;36.52;22.70
11750;BME280;5932;42.656;23.236;2022-07-22T13:15:20;93792.00;;;36.39;22.67
11750;BME280;5932;42.656;23.236;2022-07-22T13:17:49;93790.94;;;36.52;22.52
11750;BME280;5932;42.656;23.236;2022-07-22T13:20:17;93803.91;;;36.55;21.70
11750;BME280;5932;42.656;23.236;2022-07-22T13:22:44;93799.28;;;36.67;21.56
11750;BME280;5932;42.656;23.236;2022-07-22T13:25:11;93801.59;;;36.61;22.24
11750;BME280;5932;42.656;23.236;2022-07-22T13:27:38;93811.06;;;36.73;22.15
11750;BME280;5932;42.656;23.236;2022-07-22T13:30:05;93804.44;;;36.78;21.98
11750;BME280;5932;42.656;23.236;2022-07-22T13:32:33;93805.31;;;36.88;21.35
11750;BME280;5932;42.656;23.236;2022-07-22T13:35:01;93806.31;;;37.00;20.71
11750;BME280;5932;42.656;23.236;2022-07-22T13:37:28;93806.78;;;37.06;21.24
11750;BME280;5932;42.656;23.236;2022-07-22T13:39:55;93807.28;;;37.12;20.99
11750;BME280;5932;42.656;23.236;2022-07-22T13:42:22;93803.13;;;37.13;20.92
11750;BME280;5932;42.656;23.236;2022-07-22T13:44:49;93800.56;;;36.91;22.03
11750;BME280;5932;42.656;23.236;2022-07-22T13:47:17;93798.03;;;36.78;21.50